Time;durP1;ratioP1;P1;durP2;ratioP2;P2;SDS_P1;SDS_P2;PMS_P1;PMS_P2;Temp;Humidity;BMP_temperature;BMP_pressure;BME280_temperature;BME280_humidity;BME280_pressure;Samples;Min_cycle;Max_cycle;Signal;HPM_P1;HPM_P2
2023/01/18 00:02:03;;;;;;;2.90;1.45;;;;;;;11.93;55.90;93153.25;5116286;28;20582;-72
2023/01/18 00:04:30;;;;;;;1.88;1.35;;;;;;;11.94;55.57;93145.72;5116912;28;20196;-72
2023/01/18 00:06:57;;;;;;;2.33;1.25;;;;;;;11.97;55.41;93142.94;5115821;28;20231;-72
2023/01/18 00:09:24;;;;;;;1.33;1.23;;;;;;;11.99;55.05;93109.41;5115830;28;20195;-72
2023/01/18 00:11:52;;;;;;;1.60;1.27;;;;;;;12.01;55.08;93126.31;5116483;28;20196;-72
2023/01/18 00:14:19;;;;;;;8.57;2.05;;;;;;;12.07;54.02;93179.97;5115538;28;20299;-73
2023/01/18 00:16:46;;;;;;;2.28;1.10;;;;;;;12.16;53.49;93158.16;5098751;28;20696;-72
2023/01/18 00:19:13;;;;;;;1.52;1.20;;;;;;;12.19;54.09;93135.22;5116443;28;20184;-71
2023/01/18 00:21:40;;;;;;;4.28;1.48;;;;;;;12.27;53.33;93116.59;5115410;28;20268;-71
2023/01/18 00:24:13;;;;;;;1.52;1.20;;;;;;;12.28;53.33;93129.25;5116289;28;20192;-71
2023/01/18 00:26:42;;;;;;;2.47;1.15;;;;;;;12.26;54.15;93128.84;5115467;28;20208;-71
2023/01/18 00:29:10;;;;;;;1.63;1.35;;;;;;;12.23;53.85;93124.91;5115765;28;20234;-71
2023/01/18 00:31:38;;;;;;;1.02;1.00;;;;;;;12.28;53.54;93104.38;5116160;28;20187;-71
2023/01/18 00:34:05;;;;;;;3.60;1.52;;;;;;;12.33;53.25;93164.72;5116215;28;20278;-71
2023/01/18 00:36:32;;;;;;;1.50;1.20;;;;;;;12.38;53.25;93127.53;5116339;28;20176;-71
2023/01/18 00:39:00;;;;;;;2.42;1.23;;;;;;;12.38;53.32;93120.06;5115263;28;20199;-71
2023/01/18 00:41:27;;;;;;;2.35;1.00;;;;;;;12.43;52.73;93113.28;5116076;28;20203;-71
2023/01/18 00:43:52;;;;;;;3.33;1.10;;;;;;;12.47;52.63;93114.81;5115338;28;20183;-71
2023/01/18 00:46:22;;;;;;;1.42;1.10;;;;;;;12.45;52.87;93111.66;5114945;28;20271;-71
2023/01/18 00:48:49;;;;;;;1.95;1.00;;;;;;;12.46;52.94;93123.53;5116016;28;20202;-71
2023/01/18 00:51:18;;;;;;;2.83;1.10;;;;;;;12.44;53.18;93195.81;5115983;28;20187;-71
2023/01/18 00:53:45;;;;;;;3.75;1.00;;;;;;;12.43;52.85;93094.72;5115603;28;20253;-71
2023/01/18 00:56:13;;;;;;;1.00;1.00;;;;;;;12.40;53.12;93125.94;5115350;28;20538;-71
2023/01/18 00:58:40;;;;;;;1.00;0.90;;;;;;;12.40;53.34;93141.75;5115729;28;20237;-72
2023/01/18 01:01:08;;;;;;;1.75;1.10;;;;;;;12.37;53.44;93114.91;5115137;28;20206;-71
2023/01/18 01:09:09;;;;;;;1.88;1.05;;;;;;;12.38;53.24;93133.88;5114430;28;20249;-72
2023/01/18 01:11:36;;;;;;;1.02;1.00;;;;;;;12.41;52.98;93143.31;5115671;28;20611;-72
2023/01/18 01:27:44;;;;;;;1.15;1.00;;;;;;;12.59;52.87;93143.13;5115235;28;20200;-72
2023/01/18 01:30:11;;;;;;;0.90;0.90;;;;;;;12.49;53.58;93159.44;5115427;28;20180;-71
2023/01/18 01:32:38;;;;;;;1.38;1.02;;;;;;;12.45;53.29;93141.28;5115499;28;20198;-72
2023/01/18 01:35:07;;;;;;;2.25;1.10;;;;;;;12.41;53.56;93157.91;5114323;28;20608;-71
2023/01/18 01:37:34;;;;;;;1.00;0.90;;;;;;;12.46;53.30;93148.41;5114588;28;20200;-71
2023/01/18 01:40:00;;;;;;;1.33;1.10;;;;;;;12.48;52.56;93146.78;5114378;28;20676;-71
2023/01/18 01:42:27;;;;;;;1.77;1.10;;;;;;;12.57;52.25;93159.34;5114358;28;20601;-71
2023/01/18 01:44:54;;;;;;;2.17;1.20;;;;;;;12.66;52.07;93124.44;5114578;28;20196;-71
2023/01/18 01:47:33;;;;;;;2.22;1.10;;;;;;;12.70;51.82;93135.47;5114100;28;20683;-71
2023/01/18 01:50:03;;;;;;;1.83;1.00;;;;;;;12.73;51.62;93187.22;5114372;28;20199;-71
2023/01/18 01:52:34;;;;;;;1.88;1.10;;;;;;;12.72;51.74;93128.34;5114599;28;20196;-71
2023/01/18 01:55:04;;;;;;;1.40;1.25;;;;;;;12.72;51.78;93133.09;5115022;28;20619;-71
2023/01/18 01:57:32;;;;;;;2.05;1.10;;;;;;;12.78;51.49;93172.91;5118878;28;20231;-71
2023/01/18 02:00:00;;;;;;;1.70;1.20;;;;;;;12.81;51.14;93160.25;5118758;28;20188;-71
2023/01/18 02:02:28;;;;;;;2.75;1.33;;;;;;;12.83;51.13;93171.69;5118766;27;20176;-71
2023/01/18 02:04:55;;;;;;;2.00;1.10;;;;;;;12.76;51.40;93155.97;5119029;28;20195;-72
2023/01/18 02:07:25;;;;;;;1.33;0.98;;;;;;;12.73;51.76;93168.63;5118626;28;20636;-71
2023/01/18 02:09:53;;;;;;;1.88;1.00;;;;;;;12.69;52.09;93184.47;5118087;28;20290;-71
2023/01/18 02:12:20;;;;;;;2.80;1.40;;;;;;;12.66;52.09;93173.47;5118822;28;20191;-72
2023/01/18 02:14:47;;;;;;;1.58;1.17;;;;;;;12.62;52.25;93139.53;5117820;28;20195;-72
2023/01/18 02:17:27;;;;;;;2.13;1.40;;;;;;;12.56;52.63;93160.53;5118900;28;20253;-71
2023/01/18 02:20:20;;;;;;;2.17;1.30;;;;;;;12.52;53.03;93163.31;5118337;28;20202;-71
2023/01/18 02:23:13;;;;;;;2.45;1.40;;;;;;;12.46;53.18;93156.69;5117473;28;20192;-71
2023/01/18 02:26:17;;;;;;;2.35;1.17;;;;;;;12.44;53.32;93175.66;5118453;28;20198;-71
2023/01/18 02:28:51;;;;;;;2.28;1.60;;;;;;;12.41;53.12;93193.06;5087349;28;20268;-71
2023/01/18 02:31:19;;;;;;;4.28;1.52;;;;;;;12.41;53.33;93185.56;5117587;28;20211;-71
2023/01/18 02:33:50;;;;;;;3.35;1.63;;;;;;;12.41;53.00;93160.69;5117521;28;20195;-71
2023/01/18 02:36:25;;;;;;;3.30;1.20;;;;;;;12.42;53.40;93181.63;5118287;28;20196;-71
2023/01/18 02:38:55;;;;;;;1.85;1.60;;;;;;;12.44;53.31;93230.97;5117416;28;20285;-72
2023/01/18 02:46:29;;;;;;;2.80;1.58;;;;;;;12.45;53.16;93182.75;5117347;28;20211;-72
2023/01/18 02:47:00;;;;;;;3.03;1.30;;;;;;;12.48;53.08;93193.00;5117858;28;20230;-71
2023/01/18 02:49:31;;;;;;;3.67;1.60;;;;;;;12.47;52.79;93152.72;5117962;28;20187;-71
2023/01/18 02:52:01;;;;;;;2.97;1.80;;;;;;;12.47;52.70;93142.44;5117128;28;20196;-71
2023/01/18 02:54:28;;;;;;;2.17;1.60;;;;;;;12.47;53.02;93191.44;5117572;28;20192;-71
2023/01/18 02:56:56;;;;;;;2.17;1.20;;;;;;;12.48;52.59;93174.44;5116943;28;20706;-72
2023/01/18 02:59:27;;;;;;;1.70;1.33;;;;;;;12.47;52.99;93191.44;5117055;28;20241;-72
2023/01/18 03:01:57;;;;;;;1.65;1.00;;;;;;;12.47;52.65;93169.31;5117858;27;20184;-72
2023/01/18 03:04:26;;;;;;;2.33;1.30;;;;;;;12.47;52.67;93175.63;5117898;28;20184;-72
2023/01/18 03:06:56;;;;;;;3.63;1.33;;;;;;;12.50;52.65;93196.94;5117021;28;20218;-72
2023/01/18 03:09:25;;;;;;;2.60;1.65;;;;;;;12.50;52.64;93193.38;5116595;28;20248;-72
2023/01/18 03:11:57;;;;;;;2.33;1.70;;;;;;;12.48;52.85;93187.47;5117771;28;20188;-71
2023/01/18 03:14:37;;;;;;;4.15;1.75;;;;;;;12.48;52.56;93196.53;5117736;27;20211;-71
2023/01/18 03:17:07;;;;;;;2.42;1.73;;;;;;;12.50;52.51;93232.88;5116762;28;20192;-71
2023/01/18 03:23:36;;;;;;;3.70;1.70;;;;;;;12.51;52.70;93168.09;5116328;28;20195;-71
2023/01/18 03:25:16;;;;;;;2.47;1.65;;;;;;;12.48;52.72;93176.41;5117059;28;20298;-71
2023/01/18 03:36:02;;;;;;;2.35;1.10;;;;;;;12.59;51.98;93165.25;5116873;28;20176;-71
2023/01/18 03:38:29;;;;;;;3.15;1.70;;;;;;;12.57;52.21;93173.97;5116039;28;20196;-71
2023/01/18 03:40:57;;;;;;;2.35;1.40;;;;;;;12.55;52.11;93170.81;5117337;28;20188;-71
2023/01/18 03:43:24;;;;;;;2.10;1.33;;;;;;;12.55;52.22;93189.38;5116491;28;20203;-71
2023/01/18 03:45:56;;;;;;;2.95;1.20;;;;;;;12.57;52.21;93153.81;5115857;28;20191;-71
2023/01/18 03:48:23;;;;;;;2.05;1.33;;;;;;;12.55;52.55;93173.56;5115818;28;20587;-71
2023/01/18 03:50:52;;;;;;;3.58;1.48;;;;;;;12.60;51.82;93180.63;5116432;28;20203;-71
2023/01/18 03:53:24;;;;;;;2.10;1.20;;;;;;;12.61;51.68;93171.94;5116101;28;20195;-71
2023/01/18 03:55:54;;;;;;;3.10;1.63;;;;;;;12.62;51.77;93154.13;5116588;28;20250;-71
2023/01/18 03:58:23;;;;;;;4.00;1.30;;;;;;;12.64;51.27;93170.34;5116971;28;20257;-72
2023/01/18 04:00:53;;;;;;;3.05;1.35;;;;;;;12.62;51.75;93167.97;5116100;28;20200;-71
2023/01/18 04:03:19;;;;;;;2.58;1.52;;;;;;;12.60;51.68;93164.03;5116542;28;20245;-71
2023/01/18 04:05:46;;;;;;;3.03;1.50;;;;;;;12.60;51.42;93181.44;5116466;28;20206;-71
2023/01/18 04:08:15;;;;;;;2.40;1.27;;;;;;;12.64;51.57;93173.88;5116210;28;20719;-71
2023/01/18 04:10:41;;;;;;;3.78;1.50;;;;;;;12.67;52.04;93197.16;5115355;28;20200;-70
2023/01/18 04:13:08;;;;;;;2.40;1.40;;;;;;;12.70;51.75;93186.03;5115656;28;20247;-70
2023/01/18 04:15:35;;;;;;;2.45;1.40;;;;;;;12.63;51.71;93188.09;5116918;28;20184;-69
2023/01/18 04:18:04;;;;;;;3.33;2.13;;;;;;;12.62;51.54;93194.84;5115077;28;20203;-68
2023/01/18 04:20:30;;;;;;;4.15;1.40;;;;;;;12.65;51.25;93188.50;5116366;28;20233;-69
2023/01/18 04:22:57;;;;;;;2.45;1.30;;;;;;;12.66;51.54;93179.00;5116534;28;20184;-68
2023/01/18 04:25:24;;;;;;;1.92;1.33;;;;;;;12.62;51.86;93192.06;5115972;28;20252;-69
2023/01/18 04:27:51;;;;;;;2.92;1.40;;;;;;;12.59;51.91;93166.03;5115497;28;20215;-69
2023/01/18 04:30:18;;;;;;;2.63;1.50;;;;;;;12.57;51.98;93171.19;5116520;27;20194;-69
2023/01/18 04:32:45;;;;;;;2.28;1.50;;;;;;;12.55;51.96;93217.81;5115830;28;20195;-68
2023/01/18 04:35:14;;;;;;;4.32;1.48;;;;;;;12.59;51.62;93192.91;5115435;28;20206;-68
2023/01/18 04:37:40;;;;;;;3.13;1.45;;;;;;;12.60;52.05;93175.91;5115501;28;20198;-68
2023/01/18 04:40:09;;;;;;;4.05;1.73;;;;;;;12.58;52.15;93197.66;5115430;28;20264;-68
2023/01/18 04:42:35;;;;;;;4.03;1.73;;;;;;;12.64;51.39;93200.75;5114950;28;20188;-68
2023/01/18 04:45:02;;;;;;;2.45;1.77;;;;;;;12.66;51.44;93173.47;5116173;28;20180;-68
2023/01/18 04:47:29;;;;;;;3.38;1.60;;;;;;;12.65;51.85;93174.66;5115707;28;20506;-68
2023/01/18 04:49:56;;;;;;;3.67;1.52;;;;;;;12.61;52.09;93190.50;5115395;28;20196;-68
2023/01/18 04:52:25;;;;;;;3.47;1.75;;;;;;;12.58;52.26;93170.00;5115428;28;20538;-69
2023/01/18 04:54:52;;;;;;;2.63;1.67;;;;;;;12.59;52.05;93168.78;5115655;28;20257;-68
2023/01/18 04:57:19;;;;;;;2.13;1.60;;;;;;;12.60;52.26;93191.69;5115002;28;20678;-68
2023/01/18 04:59:45;;;;;;;1.92;1.20;;;;;;;12.65;51.57;93147.00;5115576;28;20195;-69
2023/01/18 05:02:13;;;;;;;3.55;1.40;;;;;;;12.67;51.87;93205.44;5115731;28;20600;-70
2023/01/18 05:04:40;;;;;;;3.38;1.60;;;;;;;12.65;51.76;93128.44;5116309;28;20184;-68
2023/01/18 05:07:07;;;;;;;2.65;1.77;;;;;;;12.63;52.22;93182.56;5115386;28;20211;-68
2023/01/18 05:09:36;;;;;;;3.85;1.85;;;;;;;12.64;51.88;93160.06;5114970;28;20195;-67
2023/01/18 05:12:03;;;;;;;4.03;1.45;;;;;;;12.68;51.44;93165.53;5115773;28;20188;-68
2023/01/18 05:14:30;;;;;;;2.97;1.60;;;;;;;12.73;51.09;93173.38;5115090;28;20214;-67
2023/01/18 05:16:57;;;;;;;3.92;1.60;;;;;;;12.73;50.79;93149.25;5115279;28;20428;-68
2023/01/18 05:19:29;;;;;;;3.17;1.38;;;;;;;12.88;50.27;93149.09;5114908;28;20195;-68
2023/01/18 05:21:56;;;;;;;4.18;1.60;;;;;;;12.92;50.07;93183.81;5114555;28;20192;-68
2023/01/18 05:24:23;;;;;;;4.03;1.48;;;;;;;12.96;50.03;93192.88;5115095;28;20211;-68
2023/01/18 05:26:51;;;;;;;2.53;1.50;;;;;;;12.97;50.07;93180.59;5115414;28;20191;-68
2023/01/18 05:29:18;;;;;;;3.20;1.45;;;;;;;12.93;49.96;93166.03;5116351;28;20607;-68
2023/01/18 05:31:45;;;;;;;3.03;1.63;;;;;;;12.89;50.55;93223.41;5119972;28;20187;-68
2023/01/18 05:34:11;;;;;;;4.53;1.63;;;;;;;12.88;50.02;93194.16;5119874;28;20248;-68
2023/01/18 05:36:38;;;;;;;3.85;1.75;;;;;;;12.90;50.29;93226.94;5120118;28;20188;-69
2023/01/18 05:39:05;;;;;;;3.78;1.40;;;;;;;12.93;50.59;93190.16;5119515;28;20192;-68
2023/01/18 05:41:32;;;;;;;2.67;1.65;;;;;;;12.90;50.40;93227.72;5119491;28;20194;-68
2023/01/18 05:44:00;;;;;;;2.95;1.60;;;;;;;12.87;50.73;93209.19;5119581;28;20188;-68
2023/01/18 05:46:27;;;;;;;2.33;1.30;;;;;;;12.83;50.96;93186.31;5120032;28;20184;-68
2023/01/18 05:48:56;;;;;;;4.15;1.80;;;;;;;12.82;51.14;93197.78;5119346;28;20215;-67
2023/01/18 05:51:23;;;;;;;2.55;1.60;;;;;;;12.84;50.61;93190.63;5119503;28;20179;-66
2023/01/18 05:53:50;;;;;;;2.10;1.40;;;;;;;12.88;50.42;93176.75;5118348;28;20256;-65
2023/01/18 05:56:17;;;;;;;5.45;1.90;;;;;;;12.99;50.09;93182.94;5118881;28;20283;-66
2023/01/18 05:58:44;;;;;;;2.85;1.67;;;;;;;13.07;50.59;93200.25;5118285;28;20195;-66
2023/01/18 06:01:12;;;;;;;2.78;1.83;;;;;;;13.00;50.07;93210.22;5118324;28;20199;-66
2023/01/18 06:03:40;;;;;;;3.50;2.00;;;;;;;12.96;50.38;93252.94;5119204;28;20229;-67
2023/01/18 06:06:07;;;;;;;4.47;1.60;;;;;;;12.95;50.55;93232.03;5118079;28;20192;-67
2023/01/18 06:08:34;;;;;;;3.78;1.63;;;;;;;12.96;50.23;93253.75;5118445;28;20218;-66
2023/01/18 06:11:01;;;;;;;5.00;1.55;;;;;;;12.97;50.40;93201.97;5119018;28;20184;-66
2023/01/18 06:13:29;;;;;;;2.85;1.60;;;;;;;12.95;50.75;93212.66;5118939;28;20184;-66
2023/01/18 06:15:57;;;;;;;3.90;1.95;;;;;;;12.92;51.12;93272.34;5118447;28;20191;-65
2023/01/18 06:18:27;;;;;;;4.13;1.85;;;;;;;12.97;51.66;93266.38;5118753;27;20199;-66
2023/01/18 06:20:54;;;;;;;4.90;1.70;;;;;;;12.93;51.72;93213.06;5117909;28;20188;-66
2023/01/18 06:23:21;;;;;;;6.20;2.00;;;;;;;12.87;51.50;93225.78;5118565;28;20291;-67
2023/01/18 06:25:48;;;;;;;3.22;1.85;;;;;;;12.82;52.11;93225.44;5117740;28;20568;-67
2023/01/18 06:28:15;;;;;;;5.25;2.08;;;;;;;12.77;52.31;93244.06;5117557;28;20204;-67
2023/01/18 06:30:42;;;;;;;4.47;2.00;;;;;;;12.76;52.36;93236.19;5118572;28;20199;-67
2023/01/18 06:33:09;;;;;;;5.32;2.10;;;;;;;12.74;52.25;93239.38;5118185;28;20252;-67
2023/01/18 06:35:37;;;;;;;4.53;2.17;;;;;;;12.75;52.83;93210.50;5117180;28;20533;-67
2023/01/18 06:38:04;;;;;;;2.75;1.88;;;;;;;12.75;52.40;93249.22;5118346;28;20203;-67
2023/01/18 06:40:31;;;;;;;3.25;1.92;;;;;;;12.76;52.56;93244.47;5118301;28;20230;-67
2023/01/18 06:42:58;;;;;;;3.05;1.90;;;;;;;12.76;52.52;93280.44;5117542;28;20190;-67
2023/01/18 06:45:25;;;;;;;2.50;1.52;;;;;;;12.80;52.26;93239.69;5117850;28;20227;-67
2023/01/18 06:47:52;;;;;;;3.83;1.80;;;;;;;12.79;52.83;93212.44;5118235;28;20198;-67
2023/01/18 06:50:19;;;;;;;4.75;1.70;;;;;;;12.83;52.21;93213.19;5117963;28;20188;-67
2023/01/18 06:52:48;;;;;;;5.45;2.25;;;;;;;12.84;52.85;93218.31;5118128;28;20187;-68
2023/01/18 06:55:15;;;;;;;4.15;2.10;;;;;;;12.82;52.49;93237.31;5117187;28;20196;-68
2023/01/18 06:57:42;;;;;;;5.38;2.50;;;;;;;12.81;52.97;93251.53;5117158;28;20188;-70
2023/01/18 07:00:10;;;;;;;2.63;1.48;;;;;;;12.81;53.21;93277.22;5117178;28;20195;-68
2023/01/18 07:02:37;;;;;;;3.10;1.73;;;;;;;12.83;52.72;93291.44;5118017;28;20187;-68
2023/01/18 07:05:04;;;;;;;4.50;2.20;;;;;;;12.85;52.59;93282.72;5116867;28;20202;-68
2023/01/18 07:07:31;;;;;;;3.05;1.63;;;;;;;12.91;52.86;93234.03;5117928;28;20272;-67
2023/01/18 07:09:59;;;;;;;3.65;1.85;;;;;;;12.94;52.67;93230.47;5117727;28;20212;-68
2023/01/18 07:12:26;;;;;;;3.05;1.52;;;;;;;12.96;52.43;93226.09;5117764;28;20180;-68
2023/01/18 07:14:53;;;;;;;4.32;1.92;;;;;;;12.97;52.28;93240.72;5117743;28;20199;-67
2023/01/18 07:17:20;;;;;;;4.00;1.88;;;;;;;13.00;52.60;93311.84;5117418;28;20188;-67
2023/01/18 07:19:46;;;;;;;6.60;2.30;;;;;;;13.07;51.84;93273.03;5117686;28;20196;-67
2023/01/18 07:22:14;;;;;;;3.58;2.10;;;;;;;13.12;51.92;93285.63;5117423;28;20184;-68
2023/01/18 07:24:41;;;;;;;3.33;1.85;;;;;;;13.15;51.73;93241.28;5117188;28;20608;-68
2023/01/18 07:27:09;;;;;;;4.22;1.80;;;;;;;13.17;51.64;93266.56;5117175;28;20221;-68
2023/01/18 07:29:36;;;;;;;5.32;1.95;;;;;;;13.26;51.09;93226.56;5116530;28;20669;-68
2023/01/18 07:32:03;;;;;;;3.88;1.83;;;;;;;13.32;51.20;93249.81;5117048;28;20183;-68
2023/01/18 07:34:30;;;;;;;6.28;2.47;;;;;;;13.34;50.74;93262.03;5117419;28;20199;-68
2023/01/18 07:36:56;;;;;;;5.43;2.70;;;;;;;13.41;50.42;93330.41;5116636;28;20529;-68
2023/01/18 07:39:23;;;;;;;2.88;1.83;;;;;;;13.49;50.13;93268.97;5117111;28;20188;-68
2023/01/18 07:41:50;;;;;;;10.30;2.30;;;;;;;13.53;50.18;93290.31;5116804;28;20203;-68
2023/01/18 07:44:18;;;;;;;5.13;2.20;;;;;;;13.55;50.52;93352.41;5116214;28;20587;-68
2023/01/18 07:46:44;;;;;;;5.97;2.20;;;;;;;13.60;50.23;93277.13;5115959;28;20199;-68
2023/01/18 07:49:11;;;;;;;4.53;2.03;;;;;;;13.66;50.01;93302.41;5116831;28;20211;-68
2023/01/18 07:51:38;;;;;;;3.80;2.00;;;;;;;13.68;50.13;93300.78;5116669;28;20242;-68
2023/01/18 07:54:05;;;;;;;2.63;1.88;;;;;;;13.75;50.22;93343.44;5116697;28;20199;-68
2023/01/18 07:56:32;;;;;;;3.45;2.08;;;;;;;13.81;49.68;93322.41;5116090;28;20601;-68
2023/01/18 07:58:58;;;;;;;3.75;1.73;;;;;;;13.86;49.39;93302.53;5116700;28;20175;-68
2023/01/18 08:01:27;;;;;;;3.42;2.03;;;;;;;13.94;49.36;93335.28;5115452;28;20619;-68
2023/01/18 08:03:53;;;;;;;4.82;2.10;;;;;;;13.97;49.48;93395.41;5116596;28;20191;-68
2023/01/18 08:06:23;;;;;;;5.93;2.15;;;;;;;14.04;49.17;93360.50;5115666;28;20198;-68
2023/01/18 08:08:50;;;;;;;4.60;2.35;;;;;;;14.12;48.67;93350.88;5115841;28;20239;-68
2023/01/18 08:11:18;;;;;;;3.78;2.35;;;;;;;14.18;48.21;93382.47;5116644;28;20188;-68
2023/01/18 08:13:44;;;;;;;2.30;1.70;;;;;;;14.22;48.46;93358.25;5115615;28;20261;-68
2023/01/18 08:16:12;;;;;;;3.38;1.45;;;;;;;14.26;48.25;93386.72;5116447;28;20230;-68
2023/01/18 08:18:43;;;;;;;3.80;2.10;;;;;;;14.31;48.16;93377.97;5115419;28;20499;-67
2023/01/18 08:21:11;;;;;;;4.65;2.25;;;;;;;14.36;48.05;93393.34;5116539;28;20176;-68
2023/01/18 08:23:38;;;;;;;2.30;1.75;;;;;;;14.35;48.04;93381.47;5116082;28;20191;-68
2023/01/18 08:26:05;;;;;;;4.40;2.20;;;;;;;14.35;47.89;93373.13;5115385;28;20257;-68
2023/01/18 08:28:32;;;;;;;2.60;1.52;;;;;;;14.41;48.25;93382.53;5116115;28;20222;-68
2023/01/18 08:31:09;;;;;;;3.20;1.77;;;;;;;14.45;48.17;93407.44;5116467;28;20195;-68
2023/01/18 08:33:38;;;;;;;4.88;1.90;;;;;;;14.51;48.09;93410.59;5115182;28;20260;-68
2023/01/18 08:36:10;;;;;;;3.47;1.73;;;;;;;14.55;47.77;93378.81;5115155;28;20191;-68
2023/01/18 08:38:36;;;;;;;6.88;2.17;;;;;;;14.60;47.69;93383.13;5115798;28;20612;-68
2023/01/18 08:41:04;;;;;;;5.35;1.98;;;;;;;14.62;47.67;93414.78;5115995;28;20188;-68
2023/01/18 08:43:31;;;;;;;4.60;1.67;;;;;;;14.59;47.96;93403.72;5115152;28;20198;-68
2023/01/18 08:45:58;;;;;;;5.32;1.83;;;;;;;14.65;47.55;93391.75;5115102;28;20269;-68
2023/01/18 08:48:24;;;;;;;5.85;2.10;;;;;;;14.74;47.51;93424.50;5114915;28;20222;-68
2023/01/18 08:50:51;;;;;;;5.93;1.92;;;;;;;14.76;47.54;93405.44;5115494;28;20195;-68
2023/01/18 08:53:19;;;;;;;3.45;1.77;;;;;;;14.82;47.14;93445.41;5115328;28;20207;-68
2023/01/18 08:55:46;;;;;;;3.38;2.03;;;;;;;14.80;47.22;93420.06;5115812;28;20223;-68
2023/01/18 08:58:13;;;;;;;3.50;2.00;;;;;;;14.87;47.18;93405.28;5114851;28;20191;-68
2023/01/18 09:00:39;;;;;;;4.63;1.88;;;;;;;14.91;47.19;93453.97;5116033;28;20184;-68
2023/01/18 09:03:06;;;;;;;4.07;1.70;;;;;;;15.01;46.99;93454.25;5115819;28;20191;-68
2023/01/18 09:05:35;;;;;;;4.03;1.67;;;;;;;15.02;46.47;93442.72;5115417;28;20200;-68
2023/01/18 09:08:01;;;;;;;6.78;2.08;;;;;;;15.08;46.40;93485.47;5115477;28;20249;-68
2023/01/18 09:10:31;;;;;;;3.28;1.80;;;;;;;15.08;46.42;93443.81;5115690;28;20211;-68
2023/01/18 09:12:58;;;;;;;4.60;2.20;;;;;;;15.17;46.45;93443.28;5115356;28;20191;-68
2023/01/18 09:15:25;;;;;;;3.00;1.80;;;;;;;15.21;46.29;93462.66;5115389;28;20596;-67
2023/01/18 09:17:52;;;;;;;4.90;2.00;;;;;;;15.32;46.13;93472.41;5114661;28;20196;-67
2023/01/18 09:20:19;;;;;;;2.60;1.70;;;;;;;15.33;46.46;93432.31;5115574;28;20194;-67
2023/01/18 09:22:47;;;;;;;6.18;2.08;;;;;;;15.33;46.06;93457.31;5114290;28;20206;-67
2023/01/18 09:25:16;;;;;;;5.68;2.22;;;;;;;15.41;46.25;93480.97;5114669;28;20199;-68
2023/01/18 09:27:45;;;;;;;6.22;2.10;;;;;;;15.44;46.09;93509.13;5114541;28;20203;-68
2023/01/18 09:30:14;;;;;;;4.72;2.00;;;;;;;15.46;46.12;93474.13;5114062;28;20283;-67
2023/01/18 09:32:41;;;;;;;4.97;2.17;;;;;;;15.47;45.80;93483.25;5114722;28;20248;-67
2023/01/18 09:35:09;;;;;;;3.30;1.52;;;;;;;15.51;46.24;93500.69;5115603;28;20262;-68
2023/01/18 09:37:36;;;;;;;4.60;1.88;;;;;;;15.57;46.06;93505.31;5114747;28;20196;-67
2023/01/18 09:40:03;;;;;;;3.70;2.15;;;;;;;15.60;45.68;93484.22;5115117;28;20172;-67
2023/01/18 09:42:35;;;;;;;4.13;2.13;;;;;;;15.62;46.01;93498.50;5115381;28;20195;-68
2023/01/18 09:45:04;;;;;;;4.10;2.22;;;;;;;15.76;45.85;93478.81;5115178;28;20183;-67
2023/01/18 09:47:33;;;;;;;4.82;2.25;;;;;;;15.82;44.89;93515.25;5114419;28;20221;-67
2023/01/18 09:50:14;;;;;;;4.57;2.15;;;;;;;15.79;45.43;93474.38;5115201;28;20207;-68
2023/01/18 09:52:47;;;;;;;4.47;1.98;;;;;;;15.86;45.15;93494.50;5114964;28;20227;-68
2023/01/18 09:55:21;;;;;;;4.60;2.30;;;;;;;15.99;44.74;93499.47;5115231;28;20222;-68
2023/01/18 09:57:58;;;;;;;3.90;1.95;;;;;;;15.99;44.65;93463.31;5114378;28;20202;-67
2023/01/18 10:00:28;;;;;;;3.72;2.13;;;;;;;16.02;44.86;93474.38;5114467;28;20192;-68
2023/01/18 10:02:59;;;;;;;5.25;2.20;;;;;;;15.99;44.64;93482.78;5115234;28;20195;-68
2023/01/18 10:05:29;;;;;;;4.93;2.22;;;;;;;16.06;43.76;93577.97;5114344;28;20199;-67
2023/01/18 10:08:06;;;;;;;6.75;2.35;;;;;;;16.01;44.33;93466.44;5114314;28;20195;-68
2023/01/18 10:10:37;;;;;;;6.22;2.33;;;;;;;16.00;43.65;93499.03;5115029;28;20218;-67
2023/01/18 10:13:21;;;;;;;5.50;1.90;;;;;;;15.98;43.52;93489.56;5114372;28;20244;-67
2023/01/18 10:15:49;;;;;;;5.88;2.45;;;;;;;15.95;43.79;93440.34;5114140;28;20192;-68
2023/01/18 10:18:18;;;;;;;4.03;2.03;;;;;;;16.01;43.97;93497.03;5118308;28;20616;-67
2023/01/18 10:20:48;;;;;;;5.80;2.30;;;;;;;16.09;43.65;93440.84;5118225;28;20203;-67
2023/01/18 10:23:18;;;;;;;5.07;2.10;;;;;;;16.07;43.22;93496.09;5117801;28;20189;-67
2023/01/18 10:25:47;;;;;;;4.80;2.15;;;;;;;16.08;43.51;93457.97;5118793;27;20184;-67
2023/01/18 10:28:27;;;;;;;4.70;1.90;;;;;;;16.07;43.22;93439.72;5117746;28;20236;-68
2023/01/18 10:31:04;;;;;;;5.93;2.33;;;;;;;16.24;43.19;93460.81;5118305;28;20210;-68
2023/01/18 10:33:34;;;;;;;3.50;1.92;;;;;;;16.39;42.37;93429.94;5118613;28;20176;-68
2023/01/18 10:36:04;;;;;;;3.92;2.08;;;;;;;16.39;42.27;93421.59;5117275;28;20191;-67
2023/01/18 10:38:31;;;;;;;3.47;1.88;;;;;;;16.36;42.18;93448.25;5118440;28;20191;-67
2023/01/18 10:41:00;;;;;;;2.85;2.03;;;;;;;16.44;42.63;93465.59;5118344;28;20194;-67
2023/01/18 10:43:28;;;;;;;4.35;1.88;;;;;;;16.42;42.02;93454.91;5117582;28;20199;-67
2023/01/18 10:45:56;;;;;;;6.20;2.05;;;;;;;16.35;42.26;93468.97;5117079;28;20249;-68
2023/01/18 10:48:31;;;;;;;7.03;2.25;;;;;;;16.53;42.25;93499.19;5118033;28;20192;-68
2023/01/18 10:51:00;;;;;;;4.47;2.00;;;;;;;16.39;42.22;93514.19;5117805;28;20669;-67
2023/01/18 10:53:30;;;;;;;6.35;1.88;;;;;;;16.45;42.44;93479.09;5117337;28;20192;-68
2023/01/18 10:56:01;;;;;;;5.82;2.05;;;;;;;16.49;42.14;93496.50;5116917;28;20251;-67
2023/01/18 10:58:30;;;;;;;3.00;1.63;;;;;;;16.43;42.11;93498.19;5118048;28;20211;-67
2023/01/18 11:00:57;;;;;;;4.65;1.83;;;;;;;16.33;42.09;93479.72;5117551;28;20192;-67
2023/01/18 11:03:25;;;;;;;3.35;1.85;;;;;;;16.10;42.55;93469.44;5116977;28;20199;-68
2023/01/18 11:05:53;;;;;;;4.55;1.75;;;;;;;16.12;42.94;93445.56;5117848;28;20240;-67
2023/01/18 11:08:24;;;;;;;5.80;2.00;;;;;;;16.12;43.02;93465.03;5117045;28;20188;-67
2023/01/18 11:10:58;;;;;;;4.22;2.25;;;;;;;16.22;43.14;93495.84;5116677;28;20239;-68
2023/01/18 11:13:27;;;;;;;3.67;2.05;;;;;;;16.29;42.56;93526.31;5116689;28;20183;-68
2023/01/18 11:16:08;;;;;;;3.78;2.10;;;;;;;16.37;42.61;93486.00;5117647;28;20184;-67
2023/01/18 11:18:35;;;;;;;4.50;2.15;;;;;;;16.62;41.92;93446.50;5117831;28;20183;-67
2023/01/18 11:21:09;;;;;;;5.68;2.38;;;;;;;16.70;41.13;93458.28;5117039;28;20252;-68
2023/01/18 11:23:36;;;;;;;5.65;2.20;;;;;;;16.77;41.17;93452.56;5117512;28;20253;-68
2023/01/18 11:26:06;;;;;;;6.22;2.25;;;;;;;16.75;41.05;93480.09;5116585;28;20187;-68
2023/01/18 11:28:38;;;;;;;5.68;1.98;;;;;;;16.77;41.13;93450.56;5116058;28;20200;-68
2023/01/18 11:31:12;;;;;;;4.70;2.10;;;;;;;16.89;40.87;93467.84;5116546;28;20219;-68
2023/01/18 11:33:48;;;;;;;4.45;1.90;;;;;;;16.64;41.33;93444.09;5117433;28;20180;-68
2023/01/18 11:36:19;;;;;;;4.25;2.03;;;;;;;16.83;40.76;93432.16;5116008;28;20223;-68
2023/01/18 11:38:46;;;;;;;4.57;1.80;;;;;;;17.01;40.81;93434.53;5117255;28;20257;-68
2023/01/18 11:41:15;;;;;;;5.05;2.00;;;;;;;17.26;40.12;93441.50;5116903;28;20248;-68
2023/01/18 11:43:52;;;;;;;5.20;2.30;;;;;;;17.38;40.03;93451.16;5116337;28;20188;-68
2023/01/18 11:46:28;;;;;;;5.78;2.10;;;;;;;17.54;39.39;93465.88;5116078;28;20248;-68
2023/01/18 11:48:58;;;;;;;3.90;2.30;;;;;;;17.65;39.24;93448.91;5116086;28;20199;-68
2023/01/18 11:51:31;;;;;;;4.50;2.03;;;;;;;17.62;38.82;93440.63;5116830;28;20231;-68
2023/01/18 11:54:03;;;;;;;6.07;2.00;;;;;;;17.44;39.48;93446.66;5115926;28;20203;-68
2023/01/18 11:56:32;;;;;;;6.07;1.95;;;;;;;17.55;39.08;93463.88;5115539;28;20679;-68
2023/01/18 11:59:00;;;;;;;4.97;2.00;;;;;;;17.29;39.12;93458.13;5116591;28;20200;-68
2023/01/18 12:01:50;;;;;;;4.53;2.22;;;;;;;17.40;38.78;93449.53;5115817;28;20679;-67
2023/01/18 12:04:22;;;;;;;4.13;1.60;;;;;;;17.59;39.01;93447.06;5115860;28;20264;-68
2023/01/18 12:06:55;;;;;;;4.32;2.03;;;;;;;18.11;38.02;93437.75;5116591;28;20180;-67
2023/01/18 12:09:30;;;;;;;5.57;2.40;;;;;;;18.42;36.99;93472.34;5116213;28;20495;-67
2023/01/18 12:12:06;;;;;;;4.75;2.10;;;;;;;18.41;36.97;93481.97;5115557;28;20203;-67
2023/01/18 12:14:47;;;;;;;3.97;2.00;;;;;;;19.05;36.45;93442.97;5116732;28;20194;-67
2023/01/18 12:17:33;;;;;;;2.95;1.85;;;;;;;19.47;35.46;93442.84;5115818;28;20191;-67